createdAt,value
2019-01-31T00:02:58.136Z,-21.31
2019-01-31T00:06:03.879Z,-21.07
2019-01-31T00:24:27.554Z,-20.14
2019-01-31T00:27:35.094Z,-19.99
2019-01-31T00:30:40.825Z,-19.90
2019-01-31T00:36:47.148Z,-19.75
2019-01-31T00:39:54.684Z,-19.64
2019-01-31T00:46:13.783Z,-19.47
2019-01-31T00:49:19.517Z,-19.43
2019-01-31T00:52:25.253Z,-19.33
2019-01-31T01:04:46.443Z,-18.98
2019-01-31T01:07:52.182Z,-19.04
2019-01-31T01:10:57.932Z,-19.03
2019-01-31T01:22:58.409Z,-18.76
2019-01-31T01:29:17.761Z,-18.62
2019-01-31T01:32:23.497Z,-18.63
2019-01-31T01:35:29.237Z,-18.67
2019-01-31T01:38:34.967Z,-18.65
2019-01-31T01:41:42.523Z,-18.64
2019-01-31T01:44:48.251Z,-18.55
2019-01-31T01:47:55.792Z,-18.55
2019-01-31T01:54:02.032Z,-18.49
2019-01-31T02:03:09.498Z,-18.39
2019-01-31T02:09:15.691Z,-18.18
2019-01-31T02:12:21.436Z,-18.13
2019-01-31T02:15:28.985Z,-18.12
2019-01-31T02:24:51.969Z,-18.05
2019-01-31T02:27:57.740Z,-18.05
2019-01-31T02:31:03.521Z,-18.01
2019-01-31T02:37:22.547Z,-17.89
2019-01-31T02:40:28.286Z,-17.77
2019-01-31T02:43:35.843Z,-17.69
2019-01-31T02:46:43.390Z,-17.58
2019-01-31T02:52:49.508Z,-17.48
2019-01-31T02:58:55.904Z,-17.51
2019-01-31T03:02:01.639Z,-17.45
2019-01-31T03:05:07.366Z,-17.45
2019-01-31T03:08:13.124Z,-17.47
2019-01-31T03:23:26.672Z,-17.39
2019-01-31T03:29:33.231Z,-17.26
2019-01-31T03:32:38.993Z,-17.08
2019-01-31T03:35:46.507Z,-17.01
2019-01-31T03:41:53.336Z,-16.90
2019-01-31T03:47:59.400Z,-16.74
2019-01-31T03:54:05.650Z,-16.64
2019-01-31T03:57:13.212Z,-16.62
2019-01-31T03:59:39.643Z,-16.60
2019-01-31T04:02:45.379Z,-16.57
2019-01-31T04:08:12.464Z,-16.51
2019-01-31T04:10:38.688Z,-16.55
2019-01-31T04:13:04.813Z,-16.50
2019-01-31T04:15:31.060Z,-16.46
2019-01-31T04:17:57.266Z,-16.43
2019-01-31T04:20:23.499Z,-16.40
2019-01-31T04:22:49.648Z,-16.31
2019-01-31T04:25:15.904Z,-16.41
2019-01-31T04:27:42.030Z,-16.43
2019-01-31T04:30:49.594Z,-16.28
2019-01-31T04:33:15.814Z,-16.32
2019-01-31T04:35:41.947Z,-16.34
2019-01-31T04:38:08.071Z,-16.37
2019-01-31T04:40:34.345Z,-16.35
2019-01-31T04:43:00.567Z,-16.23
2019-01-31T04:45:26.787Z,-16.22
2019-01-31T04:47:56.097Z,-16.27
2019-01-31T04:50:33.542Z,-16.29
2019-01-31T04:52:59.789Z,-16.23
2019-01-31T04:55:26.011Z,-16.13
2019-01-31T04:57:52.150Z,-16.08
2019-01-31T05:00:59.780Z,-16.01
2019-01-31T05:03:25.897Z,-16.02
2019-01-31T05:05:52.136Z,-16.08
2019-01-31T05:08:18.267Z,-16.09
2019-01-31T05:10:44.399Z,-16.04
2019-01-31T05:13:10.619Z,-16.07
2019-01-31T05:15:36.755Z,-16.04
2019-01-31T05:21:16.844Z,-15.94
2019-01-31T05:23:43.052Z,-15.95
2019-01-31T05:26:09.289Z,-15.95
2019-01-31T05:28:35.525Z,-15.93
2019-01-31T05:31:01.755Z,-15.85
2019-01-31T05:33:27.871Z,-15.84
2019-01-31T05:35:54.110Z,-15.78
2019-01-31T05:38:20.370Z,-15.72
2019-01-31T05:40:55.287Z,-15.75
2019-01-31T05:43:14.744Z,-15.76
2019-01-31T05:45:40.974Z,-15.74
2019-01-31T05:48:07.105Z,-15.63
2019-01-31T05:50:33.246Z,-15.59
2019-01-31T05:52:59.372Z,-15.51
2019-01-31T05:55:25.587Z,-15.45
2019-01-31T05:57:51.723Z,-15.42
2019-01-31T06:03:18.162Z,-15.29
2019-01-31T06:05:44.404Z,-15.33
2019-01-31T06:08:10.648Z,-15.29
2019-01-31T06:10:36.860Z,-15.19
2019-01-31T06:13:44.396Z,-15.17
2019-01-31T06:16:10.653Z,-15.21
2019-01-31T06:18:36.885Z,-15.15
2019-01-31T06:21:03.151Z,-15.04
2019-01-31T06:23:29.271Z,-15.00
2019-01-31T06:25:55.415Z,-15.00
2019-01-31T06:28:21.644Z,-14.98
2019-01-31T06:30:47.770Z,-14.99
2019-01-31T06:33:14.005Z,-14.98
2019-01-31T06:35:40.224Z,-14.89
2019-01-31T06:38:06.477Z,-14.82
2019-01-31T06:40:32.714Z,-14.85
2019-01-31T06:42:58.859Z,-14.87
2019-01-31T06:45:25.097Z,-14.86
2019-01-31T06:47:51.230Z,-14.79
2019-01-31T06:50:17.454Z,-14.75
2019-01-31T06:52:43.687Z,-14.75
2019-01-31T06:58:23.244Z,-14.77
2019-01-31T07:00:49.467Z,-14.76
2019-01-31T07:03:15.707Z,-14.71
2019-01-31T07:05:41.836Z,-14.72
2019-01-31T07:08:08.075Z,-14.71
2019-01-31T07:10:34.202Z,-14.57
2019-01-31T07:13:00.342Z,-14.50
2019-01-31T07:15:26.564Z,-14.46
2019-01-31T07:17:52.817Z,-14.46
2019-01-31T07:20:19.142Z,-14.40
2019-01-31T07:22:45.393Z,-14.36
2019-01-31T07:25:31.372Z,-14.33
2019-01-31T07:27:57.511Z,-14.31
2019-01-31T07:30:26.720Z,-14.36
2019-01-31T07:32:51.915Z,-14.31
2019-01-31T07:35:18.163Z,-14.28
2019-01-31T07:37:44.410Z,-14.24
2019-01-31T07:40:51.934Z,-14.23
2019-01-31T07:43:18.172Z,-14.21
2019-01-31T07:45:44.400Z,-14.19
2019-01-31T07:48:10.639Z,-14.17
2019-01-31T07:50:36.867Z,-14.10
2019-01-31T07:53:03.707Z,-14.09
2019-01-31T07:55:29.928Z,-14.04
2019-01-31T07:57:56.142Z,-14.01
2019-01-31T08:01:03.691Z,-14.00
2019-01-31T08:03:29.923Z,-13.98
2019-01-31T08:05:56.046Z,-13.91
2019-01-31T08:08:22.303Z,-13.87
2019-01-31T08:10:48.529Z,-13.83
2019-01-31T08:13:14.779Z,-13.81
2019-01-31T08:15:41.012Z,-13.75
2019-01-31T08:21:14.591Z,-13.54
2019-01-31T08:23:40.811Z,-13.51
2019-01-31T08:26:06.942Z,-13.48
2019-01-31T08:28:33.176Z,-13.50
2019-01-31T08:30:59.403Z,-13.41
2019-01-31T08:33:28.362Z,-13.46
2019-01-31T08:35:53.696Z,-13.42
2019-01-31T08:38:19.915Z,-13.35
2019-01-31T08:40:46.149Z,-13.35
2019-01-31T08:43:12.275Z,-13.27
2019-01-31T08:45:38.521Z,-13.21
2019-01-31T08:48:04.844Z,-13.15
2019-01-31T08:50:31.187Z,-13.14
2019-01-31T08:52:57.421Z,-13.08
2019-01-31T08:55:23.638Z,-13.06
2019-01-31T08:57:49.745Z,-13.00
2019-01-31T09:00:35.729Z,-12.94
2019-01-31T09:03:01.957Z,-12.94
2019-01-31T09:05:28.194Z,-12.89
2019-01-31T09:08:35.731Z,-12.87
2019-01-31T09:11:01.980Z,-12.79
2019-01-31T09:13:28.211Z,-12.73
2019-01-31T09:15:54.474Z,-12.71
2019-01-31T09:18:20.618Z,-12.74
2019-01-31T09:21:26.524Z,-12.68
2019-01-31T09:24:32.252Z,-12.72
2019-01-31T09:27:37.997Z,-12.67
2019-01-31T09:30:43.763Z,-12.67
2019-01-31T09:33:49.401Z,-12.58
2019-01-31T09:36:37.183Z,-12.51
2019-01-31T09:42:56.753Z,-12.51
2019-01-31T09:46:02.489Z,-12.48
2019-01-31T09:49:10.034Z,-12.45
2019-01-31T09:52:15.677Z,-12.43
2019-01-31T10:01:23.480Z,-12.20
2019-01-31T10:04:31.022Z,-12.18
2019-01-31T10:10:50.523Z,-12.05
2019-01-31T10:13:56.458Z,-11.98
2019-01-31T10:26:05.172Z,-11.78
2019-01-31T10:29:10.800Z,-11.73
2019-01-31T10:32:16.547Z,-11.74
2019-01-31T10:41:36.524Z,-11.55
2019-01-31T10:50:43.189Z,-11.33
2019-01-31T10:53:48.943Z,-11.36
2019-01-31T10:56:54.674Z,-11.33
2019-01-31T11:00:02.231Z,-11.25
2019-01-31T11:03:07.984Z,-11.15
2019-01-31T11:09:14.724Z,-11.14
2019-01-31T11:12:20.462Z,-11.19
2019-01-31T11:15:28.016Z,-11.26
2019-01-31T11:24:24.757Z,-11.25
2019-01-31T11:27:30.489Z,-11.15
2019-01-31T11:30:36.263Z,-11.08
2019-01-31T11:33:41.991Z,-11.07
2019-01-31T11:36:49.546Z,-11.12
2019-01-31T11:42:56.322Z,-11.06
2019-01-31T11:49:02.673Z,-11.10
2019-01-31T11:55:01.987Z,-11.02
2019-01-31T11:58:07.829Z,-10.98
2019-01-31T12:00:34.058Z,-10.89
2019-01-31T12:03:00.292Z,-10.89
2019-01-31T12:05:26.535Z,-10.87
2019-01-31T12:07:52.760Z,-10.82
2019-01-31T12:10:19.109Z,-10.81
2019-01-31T12:12:52.624Z,-10.83
2019-01-31T12:15:18.897Z,-10.81
2019-01-31T12:17:45.139Z,-10.77
2019-01-31T12:20:52.711Z,-10.71
2019-01-31T12:26:14.001Z,-10.61
2019-01-31T12:28:40.845Z,-10.61
2019-01-31T12:31:07.090Z,-10.61
2019-01-31T12:33:33.219Z,-10.62
2019-01-31T12:35:59.568Z,-10.61
2019-01-31T12:41:33.135Z,-10.57
2019-01-31T12:43:59.269Z,-10.56
2019-01-31T12:46:25.408Z,-10.52
2019-01-31T12:48:51.674Z,-10.48
2019-01-31T12:51:17.914Z,-10.48
2019-01-31T12:53:44.146Z,-10.43
2019-01-31T12:56:10.486Z,-10.36
2019-01-31T12:58:36.620Z,-10.34
2019-01-31T13:01:44.165Z,-10.32
2019-01-31T13:04:10.312Z,-10.34
2019-01-31T13:06:36.456Z,-10.37
2019-01-31T13:09:44.004Z,-10.32
2019-01-31T13:12:10.240Z,-10.34
2019-01-31T13:14:36.367Z,-10.30
2019-01-31T13:19:58.048Z,-10.28
2019-01-31T13:22:24.749Z,-10.30
2019-01-31T13:24:50.972Z,-10.32
2019-01-31T13:27:17.221Z,-10.32
2019-01-31T13:29:43.446Z,-10.29
2019-01-31T13:32:09.578Z,-10.26
2019-01-31T13:34:35.817Z,-10.23
2019-01-31T13:37:02.045Z,-10.22
2019-01-31T13:39:28.298Z,-10.20
2019-01-31T13:41:54.414Z,-10.20
2019-01-31T13:44:21.478Z,-10.16
2019-01-31T13:46:47.698Z,-10.17
2019-01-31T13:49:13.855Z,-10.17
2019-01-31T13:51:40.075Z,-10.15
2019-01-31T13:54:06.335Z,-10.16
2019-01-31T13:56:32.569Z,-10.18
2019-01-31T13:58:58.821Z,-10.18
2019-01-31T14:01:25.056Z,-10.19
2019-01-31T14:03:51.324Z,-10.21
2019-01-31T14:06:17.613Z,-10.21
2019-01-31T14:08:43.775Z,-10.19
2019-01-31T14:11:10.002Z,-10.19
2019-01-31T14:13:36.232Z,-10.19
2019-01-31T14:18:56.596Z,-10.21
2019-01-31T14:21:22.845Z,-10.21
2019-01-31T14:23:48.999Z,-10.21
2019-01-31T14:26:15.228Z,-10.19
2019-01-31T14:28:41.474Z,-10.20
2019-01-31T14:31:07.717Z,-10.19
2019-01-31T14:33:33.945Z,-10.17
2019-01-31T14:38:54.232Z,-10.14
2019-01-31T14:41:20.475Z,-10.14
2019-01-31T14:46:40.274Z,-10.12
2019-01-31T14:49:06.428Z,-10.12
2019-01-31T14:51:32.656Z,-10.12
2019-01-31T14:53:58.896Z,-10.12
2019-01-31T14:56:25.144Z,-10.15
2019-01-31T14:58:51.283Z,-10.13
2019-01-31T15:01:17.531Z,-10.14
2019-01-31T15:03:43.764Z,-10.13
2019-01-31T15:06:09.916Z,-10.09
2019-01-31T15:08:36.155Z,-10.12
2019-01-31T15:11:02.523Z,-10.12
2019-01-31T15:13:28.635Z,-10.14
2019-01-31T15:15:54.783Z,-10.11
2019-01-31T15:18:21.247Z,-10.10
2019-01-31T15:20:47.520Z,-10.11
2019-01-31T15:23:13.752Z,-10.11
2019-01-31T15:25:39.978Z,-10.12
2019-01-31T15:28:06.138Z,-10.12
2019-01-31T15:30:52.139Z,-10.13
2019-01-31T15:33:18.412Z,-10.12
2019-01-31T15:35:44.546Z,-10.12
2019-01-31T15:38:10.875Z,-10.13
2019-01-31T15:41:18.426Z,-10.12
2019-01-31T15:43:44.697Z,-10.13
2019-01-31T15:46:10.937Z,-10.11
2019-01-31T15:48:37.068Z,-10.08
2019-01-31T15:51:44.628Z,-10.10
2019-01-31T15:54:52.201Z,-10.11
2019-01-31T15:57:18.562Z,-10.13
2019-01-31T15:59:44.890Z,-10.12
2019-01-31T16:02:11.333Z,-10.13
2019-01-31T16:04:37.582Z,-10.12
2019-01-31T16:07:03.821Z,-10.11
2019-01-31T16:09:30.048Z,-10.10
2019-01-31T16:11:56.287Z,-10.08
2019-01-31T16:14:22.551Z,-10.09
2019-01-31T16:16:48.678Z,-10.09
2019-01-31T16:19:14.902Z,-10.09
2019-01-31T16:21:41.157Z,-10.06
2019-01-31T16:24:07.285Z,-10.05
2019-01-31T16:26:33.540Z,-10.05
2019-01-31T16:28:59.767Z,-10.05
2019-01-31T16:31:25.903Z,-10.05
2019-01-31T16:33:52.131Z,-9.99
2019-01-31T16:36:18.383Z,-9.96
2019-01-31T16:38:44.627Z,-9.95
2019-01-31T16:41:10.853Z,-9.97
2019-01-31T16:43:37.093Z,-9.99
2019-01-31T16:49:17.142Z,-9.98
2019-01-31T16:51:45.429Z,-9.96
2019-01-31T16:54:11.508Z,-9.96
2019-01-31T16:56:37.746Z,-9.96
2019-01-31T16:59:04.103Z,-9.94
2019-01-31T17:01:30.338Z,-9.97
2019-01-31T17:03:56.497Z,-9.92
2019-01-31T17:06:22.637Z,-9.92
2019-01-31T17:08:48.883Z,-9.93
2019-01-31T17:11:15.122Z,-9.92
2019-01-31T17:13:41.269Z,-9.93
2019-01-31T17:16:07.494Z,-9.93
2019-01-31T17:18:33.739Z,-9.92
2019-01-31T17:20:59.964Z,-9.93
2019-01-31T17:23:26.215Z,-9.91
2019-01-31T17:25:52.438Z,-9.89
2019-01-31T17:28:18.690Z,-9.91
2019-01-31T17:30:44.934Z,-9.90
2019-01-31T17:33:11.185Z,-9.91
2019-01-31T17:35:37.406Z,-9.92
2019-01-31T17:38:03.761Z,-9.90
2019-01-31T17:40:51.565Z,-9.90
2019-01-31T17:43:17.817Z,-9.89
2019-01-31T17:45:44.057Z,-9.89
2019-01-31T17:51:04.125Z,-9.94
2019-01-31T17:53:30.373Z,-9.96
2019-01-31T17:55:56.613Z,-9.96
2019-01-31T17:58:22.845Z,-10.01
2019-01-31T18:03:23.259Z,-10.04
2019-01-31T18:05:49.602Z,-10.06
2019-01-31T18:08:15.836Z,-10.09
2019-01-31T18:10:42.074Z,-10.10
2019-01-31T18:13:08.300Z,-10.11
2019-01-31T18:15:41.780Z,-10.11
2019-01-31T18:23:55.156Z,-10.11
2019-01-31T18:26:21.398Z,-10.12
2019-01-31T18:28:47.626Z,-10.15
2019-01-31T18:31:13.898Z,-10.14
2019-01-31T18:33:40.159Z,-10.14
2019-01-31T18:36:06.411Z,-10.17
2019-01-31T18:38:32.639Z,-10.18
2019-01-31T18:40:58.879Z,-10.16
2019-01-31T18:43:25.215Z,-10.15
2019-01-31T18:45:53.561Z,-10.16
2019-01-31T18:48:19.526Z,-10.21
2019-01-31T18:50:45.777Z,-10.20
2019-01-31T18:53:12.009Z,-10.20
2019-01-31T18:55:38.261Z,-10.21
2019-01-31T19:00:54.672Z,-10.23
2019-01-31T19:03:20.908Z,-10.25
2019-01-31T19:05:47.039Z,-10.26
2019-01-31T19:08:13.301Z,-10.27
2019-01-31T19:10:43.424Z,-10.29
2019-01-31T19:13:07.725Z,-10.30
2019-01-31T19:15:33.985Z,-10.34
2019-01-31T19:18:05.905Z,-10.32
2019-01-31T19:21:09.753Z,-10.31
2019-01-31T19:23:36.022Z,-10.27
2019-01-31T19:26:43.619Z,-10.28
2019-01-31T19:29:09.856Z,-10.34
2019-01-31T19:31:35.991Z,-10.34
2019-01-31T19:34:02.237Z,-10.37
2019-01-31T19:36:30.901Z,-10.40
2019-01-31T19:38:56.635Z,-10.41
2019-01-31T19:41:22.927Z,-10.40
2019-01-31T19:43:49.121Z,-10.43
2019-01-31T19:46:16.825Z,-10.46
2019-01-31T19:48:43.496Z,-10.47
2019-01-31T19:51:09.748Z,-10.48
2019-01-31T19:53:35.992Z,-10.49
2019-01-31T19:56:02.217Z,-10.51
2019-01-31T19:58:28.355Z,-10.53
2019-01-31T20:00:54.599Z,-10.55
2019-01-31T20:04:02.152Z,-10.59
2019-01-31T20:06:28.423Z,-10.59
2019-01-31T20:08:54.654Z,-10.61
2019-01-31T20:11:20.877Z,-10.61
2019-01-31T20:13:47.121Z,-10.60
2019-01-31T20:16:15.997Z,-10.64
2019-01-31T20:18:41.405Z,-10.64
2019-01-31T20:21:07.642Z,-10.68
2019-01-31T20:23:33.892Z,-10.69
2019-01-31T20:26:00.123Z,-10.67
2019-01-31T20:28:26.382Z,-10.67
2019-01-31T20:30:52.609Z,-10.70
2019-01-31T20:33:18.749Z,-10.71
2019-01-31T20:35:44.989Z,-10.71
2019-01-31T20:38:11.141Z,-10.72
2019-01-31T20:43:51.302Z,-10.77
2019-01-31T20:46:17.527Z,-10.77
2019-01-31T20:48:43.767Z,-10.78
2019-01-31T20:51:12.641Z,-10.79
2019-01-31T20:53:38.156Z,-10.75
2019-01-31T20:56:04.393Z,-10.69
2019-01-31T20:58:30.631Z,-10.73
2019-01-31T21:00:56.881Z,-10.74
2019-01-31T21:03:24.833Z,-10.71
2019-01-31T21:05:51.170Z,-10.68
2019-01-31T21:08:17.527Z,-10.74
2019-01-31T21:10:43.754Z,-10.77
2019-01-31T21:16:03.789Z,-10.78
2019-01-31T21:18:29.914Z,-10.77
2019-01-31T21:20:56.152Z,-10.76
2019-01-31T21:23:22.392Z,-10.79
2019-01-31T21:25:48.615Z,-10.79
2019-01-31T21:28:14.848Z,-10.79
2019-01-31T21:30:41.192Z,-10.85
2019-01-31T21:33:07.325Z,-10.87
2019-01-31T21:38:27.745Z,-10.87
2019-01-31T21:40:53.988Z,-10.90
2019-01-31T21:43:20.215Z,-10.92
2019-01-31T21:45:46.466Z,-10.91
2019-01-31T21:48:12.713Z,-10.89
2019-01-31T21:50:38.945Z,-10.88
2019-01-31T21:55:56.805Z,-10.84
2019-01-31T21:58:23.044Z,-10.86
2019-01-31T22:00:49.301Z,-10.88
2019-01-31T22:03:15.540Z,-10.91
2019-01-31T22:05:41.792Z,-10.97
2019-01-31T22:08:08.027Z,-10.98
2019-01-31T22:13:08.308Z,-10.98
2019-01-31T22:16:15.856Z,-10.96
2019-01-31T22:18:42.083Z,-10.95
2019-01-31T22:21:08.336Z,-10.96
2019-01-31T22:23:34.468Z,-10.98
2019-01-31T22:26:00.718Z,-11.01
2019-01-31T22:28:26.941Z,-11.00
2019-01-31T22:30:53.190Z,-10.99
2019-01-31T22:33:19.418Z,-10.99
2019-01-31T22:35:45.661Z,-11.02
2019-01-31T22:38:11.888Z,-11.02
2019-01-31T22:40:38.135Z,-11.02
2019-01-31T22:43:04.369Z,-11.04
2019-01-31T22:45:30.618Z,-11.04
2019-01-31T22:47:56.842Z,-11.05
2019-01-31T22:51:04.405Z,-11.04
2019-01-31T22:53:30.650Z,-11.05
2019-01-31T22:55:56.806Z,-11.09
2019-01-31T22:58:23.036Z,-11.08
2019-01-31T23:01:30.601Z,-11.09
2019-01-31T23:03:56.857Z,-11.09
2019-01-31T23:06:23.094Z,-11.09
2019-01-31T23:08:49.334Z,-11.09
2019-01-31T23:11:15.576Z,-11.08
2019-01-31T23:13:41.801Z,-11.09
2019-01-31T23:16:49.455Z,-11.12
2019-01-31T23:19:15.784Z,-11.12
2019-01-31T23:21:42.023Z,-11.14
2019-01-31T23:24:08.151Z,-11.15
2019-01-31T23:26:36.374Z,-11.14
2019-01-31T23:29:02.515Z,-11.13
2019-01-31T23:31:28.763Z,-11.16
2019-01-31T23:33:54.990Z,-11.21
2019-01-31T23:36:21.220Z,-11.24
2019-01-31T23:38:47.470Z,-11.24
2019-01-31T23:41:13.707Z,-11.23
2019-01-31T23:46:33.750Z,-11.26
2019-01-31T23:48:59.987Z,-11.30
2019-01-31T23:51:26.231Z,-11.29
2019-01-31T23:53:52.365Z,-11.24
2019-01-31T23:56:18.499Z,-11.22
2019-01-31T23:58:44.637Z,-11.25
